Maple Dell, Vermont
Current Conditions -  °F | °C
As of 1:54 PM on Wednesday 26 Nov 2014 (Local Time) from KVSF Reporting Station
Moderate Snow Moderate Snow  
Wind Chill: 31°   Ceiling: 1200
Heat Index: 31°   Visibility: 0.5mi
Dew Point: 29°   Wind: 3mph
Humidity: 92%   Direction: 350°N
Pressure: 30.12"   Gusts: NA
Location:  43.3096°N, 72.4675°W
Report Text: KVSF 261854Z AUTO 35003KT 1/2SM SN FZFG VV012 M01/M02 A3012 RMK AO2 SLP207 P0006 T10061017
Loading
Personal Weather Stations






























Interactive Weather Map New forecast layout! Learn more

10-Day Weather Forecast

Advertisements
Track Severe Weather on mobile